sensor_id;sensor_type;location;lat;lon;timestamp;pressure;altitude;pressure_sealevel;temperature;humidity
68822;BME280;55834;50.870;4.606;2023-12-07T00:01:28;101339.25;;;2.32;63.17
68822;BME280;55834;50.870;4.606;2023-12-07T00:03:53;101343.97;;;2.56;62.78
68822;BME280;55834;50.870;4.606;2023-12-07T00:06:18;101337.38;;;2.82;62.95
68822;BME280;55834;50.870;4.606;2023-12-07T00:08:44;101341.44;;;2.63;61.81
68822;BME280;55834;50.870;4.606;2023-12-07T00:11:09;101330.09;;;2.58;62.23
68822;BME280;55834;50.870;4.606;2023-12-07T00:13:34;101334.00;;;1.77;63.57
68822;BME280;55834;50.870;4.606;2023-12-07T00:16:00;101331.38;;;2.27;63.58
68822;BME280;55834;50.870;4.606;2023-12-07T00:18:25;101327.72;;;2.16;63.00
68822;BME280;55834;50.870;4.606;2023-12-07T00:20:51;101324.53;;;2.34;62.47
68822;BME280;55834;50.870;4.606;2023-12-07T00:23:16;101324.94;;;2.61;63.29
68822;BME280;55834;50.870;4.606;2023-12-07T00:25:41;101326.44;;;2.44;61.64
68822;BME280;55834;50.870;4.606;2023-12-07T00:28:07;101322.69;;;2.26;61.98
68822;BME280;55834;50.870;4.606;2023-12-07T00:30:32;101334.41;;;1.98;62.81
68822;BME280;55834;50.870;4.606;2023-12-07T00:32:59;101337.56;;;2.34;63.60
68822;BME280;55834;50.870;4.606;2023-12-07T00:35:24;101331.94;;;2.08;62.92
68822;BME280;55834;50.870;4.606;2023-12-07T00:37:50;101331.81;;;2.56;63.52
68822;BME280;55834;50.870;4.606;2023-12-07T00:40:15;101320.28;;;2.40;62.84
68822;BME280;55834;50.870;4.606;2023-12-07T00:42:41;101328.53;;;1.60;63.50
68822;BME280;55834;50.870;4.606;2023-12-07T00:45:07;101319.78;;;2.07;64.93
68822;BME280;55834;50.870;4.606;2023-12-07T00:47:32;101318.28;;;2.22;64.45
68822;BME280;55834;50.870;4.606;2023-12-07T00:49:57;101320.25;;;2.39;63.19
68822;BME280;55834;50.870;4.606;2023-12-07T00:52:23;101317.88;;;2.53;63.70
68822;BME280;55834;50.870;4.606;2023-12-07T00:54:48;101307.78;;;2.80;63.43
68822;BME280;55834;50.870;4.606;2023-12-07T00:57:14;101313.09;;;2.89;62.58
68822;BME280;55834;50.870;4.606;2023-12-07T00:59:39;101319.03;;;2.78;62.31
68822;BME280;55834;50.870;4.606;2023-12-07T01:02:05;101307.53;;;2.59;61.68
68822;BME280;55834;50.870;4.606;2023-12-07T01:04:31;101309.34;;;2.66;62.25
68822;BME280;55834;50.870;4.606;2023-12-07T01:06:57;101305.66;;;2.50;61.20
68822;BME280;55834;50.870;4.606;2023-12-07T01:09:22;101307.19;;;2.37;60.96
68822;BME280;55834;50.870;4.606;2023-12-07T01:11:48;101315.91;;;2.39;61.56
68822;BME280;55834;50.870;4.606;2023-12-07T01:14:14;101314.84;;;2.25;61.27
68822;BME280;55834;50.870;4.606;2023-12-07T01:16:39;101310.03;;;2.54;61.37
68822;BME280;55834;50.870;4.606;2023-12-07T01:19:05;101311.94;;;2.66;61.14
68822;BME280;55834;50.870;4.606;2023-12-07T01:21:32;101310.13;;;2.59;60.98
68822;BME280;55834;50.870;4.606;2023-12-07T01:23:57;101315.06;;;2.39;61.18
68822;BME280;55834;50.870;4.606;2023-12-07T01:26:23;101310.75;;;1.86;62.25
68822;BME280;55834;50.870;4.606;2023-12-07T01:28:49;101303.31;;;2.11;63.03
68822;BME280;55834;50.870;4.606;2023-12-07T01:31:14;101298.66;;;2.49;64.02
68822;BME280;55834;50.870;4.606;2023-12-07T01:33:40;101301.28;;;2.49;62.27
68822;BME280;55834;50.870;4.606;2023-12-07T01:36:05;101296.22;;;2.58;61.58
68822;BME280;55834;50.870;4.606;2023-12-07T01:38:31;101302.09;;;2.46;60.96
68822;BME280;55834;50.870;4.606;2023-12-07T01:40:56;101317.91;;;1.98;62.98
68822;BME280;55834;50.870;4.606;2023-12-07T01:43:22;101317.56;;;1.79;63.70
68822;BME280;55834;50.870;4.606;2023-12-07T01:45:49;101310.81;;;1.89;63.64
68822;BME280;55834;50.870;4.606;2023-12-07T01:48:19;101303.19;;;2.03;63.68
68822;BME280;55834;50.870;4.606;2023-12-07T01:50:45;101300.94;;;2.24;63.63
68822;BME280;55834;50.870;4.606;2023-12-07T01:53:11;101300.53;;;2.00;63.28
68822;BME280;55834;50.870;4.606;2023-12-07T01:55:38;101295.03;;;2.36;63.44
68822;BME280;55834;50.870;4.606;2023-12-07T01:58:04;101294.22;;;2.40;63.57
68822;BME280;55834;50.870;4.606;2023-12-07T02:00:33;101296.25;;;2.63;63.76
68822;BME280;55834;50.870;4.606;2023-12-07T02:02:58;101303.13;;;2.58;62.19
68822;BME280;55834;50.870;4.606;2023-12-07T02:05:25;101310.97;;;1.98;63.36
68822;BME280;55834;50.870;4.606;2023-12-07T02:07:50;101304.88;;;2.57;63.69
68822;BME280;55834;50.870;4.606;2023-12-07T02:10:17;101300.03;;;2.86;63.35
68822;BME280;55834;50.870;4.606;2023-12-07T02:12:44;101307.09;;;2.95;62.35
68822;BME280;55834;50.870;4.606;2023-12-07T02:15:09;101307.06;;;2.26;61.63
68822;BME280;55834;50.870;4.606;2023-12-07T02:20:44;101308.22;;;2.48;62.22
68822;BME280;55834;50.870;4.606;2023-12-07T02:23:12;101305.63;;;2.47;63.02
68822;BME280;55834;50.870;4.606;2023-12-07T02:26:02;101303.81;;;2.43;62.04
68822;BME280;55834;50.870;4.606;2023-12-07T02:28:28;101299.53;;;2.48;62.60
68822;BME280;55834;50.870;4.606;2023-12-07T02:30:53;101304.56;;;0.85;64.67
68822;BME280;55834;50.870;4.606;2023-12-07T02:33:19;101306.50;;;1.41;65.62
68822;BME280;55834;50.870;4.606;2023-12-07T02:35:44;101304.84;;;1.96;65.30
68822;BME280;55834;50.870;4.606;2023-12-07T02:38:10;101308.16;;;2.41;65.53
68822;BME280;55834;50.870;4.606;2023-12-07T02:40:35;101300.69;;;2.68;64.38
68822;BME280;55834;50.870;4.606;2023-12-07T02:43:03;101309.47;;;2.77;62.17
68822;BME280;55834;50.870;4.606;2023-12-07T02:45:29;101307.13;;;2.97;61.88
68822;BME280;55834;50.870;4.606;2023-12-07T02:47:54;101310.34;;;2.76;60.54
68822;BME280;55834;50.870;4.606;2023-12-07T02:50:20;101295.78;;;2.93;60.92
68822;BME280;55834;50.870;4.606;2023-12-07T02:52:46;101295.84;;;2.99;60.03
68822;BME280;55834;50.870;4.606;2023-12-07T02:55:11;101305.81;;;2.64;59.65
68822;BME280;55834;50.870;4.606;2023-12-07T02:57:37;101294.97;;;2.97;61.95
68822;BME280;55834;50.870;4.606;2023-12-07T03:00:03;101289.53;;;2.79;59.67
68822;BME280;55834;50.870;4.606;2023-12-07T03:02:37;101289.78;;;3.00;60.62
68822;BME280;55834;50.870;4.606;2023-12-07T03:05:03;101294.09;;;2.97;60.28
68822;BME280;55834;50.870;4.606;2023-12-07T03:07:28;101296.66;;;2.95;59.40
68822;BME280;55834;50.870;4.606;2023-12-07T03:09:54;101292.94;;;2.73;61.14
68822;BME280;55834;50.870;4.606;2023-12-07T03:12:19;101293.00;;;2.79;60.52
68822;BME280;55834;50.870;4.606;2023-12-07T03:14:44;101289.25;;;2.59;61.15
68822;BME280;55834;50.870;4.606;2023-12-07T03:17:10;101283.44;;;2.81;61.67
68822;BME280;55834;50.870;4.606;2023-12-07T03:19:39;101282.91;;;3.08;61.39
68822;BME280;55834;50.870;4.606;2023-12-07T03:22:05;101274.97;;;2.96;59.99
68822;BME280;55834;50.870;4.606;2023-12-07T03:24:34;101276.75;;;3.02;60.71
68822;BME280;55834;50.870;4.606;2023-12-07T03:27:00;101278.63;;;3.15;60.40
68822;BME280;55834;50.870;4.606;2023-12-07T03:29:25;101293.50;;;3.19;60.44
68822;BME280;55834;50.870;4.606;2023-12-07T03:31:51;101293.03;;;2.82;59.46
68822;BME280;55834;50.870;4.606;2023-12-07T03:34:16;101286.22;;;2.95;59.68
68822;BME280;55834;50.870;4.606;2023-12-07T03:36:45;101300.25;;;3.03;60.11
68822;BME280;55834;50.870;4.606;2023-12-07T03:39:11;101298.63;;;3.14;59.89
68822;BME280;55834;50.870;4.606;2023-12-07T03:41:38;101286.44;;;3.10;59.83
68822;BME280;55834;50.870;4.606;2023-12-07T03:44:03;101283.63;;;2.95;59.48
68822;BME280;55834;50.870;4.606;2023-12-07T03:46:29;101296.59;;;2.89;59.56
68822;BME280;55834;50.870;4.606;2023-12-07T03:48:54;101306.31;;;3.02;60.12
68822;BME280;55834;50.870;4.606;2023-12-07T03:51:20;101299.22;;;2.90;60.77
68822;BME280;55834;50.870;4.606;2023-12-07T03:53:45;101305.03;;;2.68;60.29
68822;BME280;55834;50.870;4.606;2023-12-07T03:56:10;101308.84;;;2.93;61.14
68822;BME280;55834;50.870;4.606;2023-12-07T03:58:36;101309.00;;;3.10;61.14
68822;BME280;55834;50.870;4.606;2023-12-07T04:01:01;101307.94;;;2.92;60.41
68822;BME280;55834;50.870;4.606;2023-12-07T04:03:27;101315.47;;;2.69;60.11
68822;BME280;55834;50.870;4.606;2023-12-07T04:05:52;101307.34;;;2.48;59.77
68822;BME280;55834;50.870;4.606;2023-12-07T04:08:18;101309.28;;;2.63;61.18
68822;BME280;55834;50.870;4.606;2023-12-07T04:10:43;101318.78;;;2.56;60.92
68822;BME280;55834;50.870;4.606;2023-12-07T04:13:09;101314.81;;;2.86;60.54
68822;BME280;55834;50.870;4.606;2023-12-07T04:15:34;101316.84;;;3.08;60.48
68822;BME280;55834;50.870;4.606;2023-12-07T04:17:59;101317.00;;;3.21;59.58
68822;BME280;55834;50.870;4.606;2023-12-07T04:20:25;101324.69;;;3.13;58.30
68822;BME280;55834;50.870;4.606;2023-12-07T04:22:50;101324.03;;;3.26;59.27
68822;BME280;55834;50.870;4.606;2023-12-07T04:25:16;101317.28;;;3.45;59.33
68822;BME280;55834;50.870;4.606;2023-12-07T04:27:41;101305.16;;;3.52;58.38
68822;BME280;55834;50.870;4.606;2023-12-07T04:30:07;101308.66;;;3.55;58.15
68822;BME280;55834;50.870;4.606;2023-12-07T04:32:32;101315.63;;;3.55;57.53
68822;BME280;55834;50.870;4.606;2023-12-07T04:34:58;101300.63;;;3.34;57.67
68822;BME280;55834;50.870;4.606;2023-12-07T04:37:23;101291.84;;;3.27;57.96
68822;BME280;55834;50.870;4.606;2023-12-07T04:39:48;101291.81;;;3.23;58.61
68822;BME280;55834;50.870;4.606;2023-12-07T04:42:14;101304.03;;;3.30;58.14
68822;BME280;55834;50.870;4.606;2023-12-07T04:44:39;101301.41;;;2.57;58.89
68822;BME280;55834;50.870;4.606;2023-12-07T04:47:05;101298.00;;;2.64;60.11
68822;BME280;55834;50.870;4.606;2023-12-07T04:49:30;101298.91;;;2.05;61.06
68822;BME280;55834;50.870;4.606;2023-12-07T04:51:55;101290.06;;;2.55;61.94
68822;BME280;55834;50.870;4.606;2023-12-07T04:54:21;101290.47;;;2.85;61.26
68822;BME280;55834;50.870;4.606;2023-12-07T04:56:46;101293.16;;;2.91;59.68
68822;BME280;55834;50.870;4.606;2023-12-07T04:59:12;101298.06;;;2.68;59.71
68822;BME280;55834;50.870;4.606;2023-12-07T05:01:38;101287.13;;;2.99;60.30
68822;BME280;55834;50.870;4.606;2023-12-07T05:04:04;101289.81;;;3.03;59.55
68822;BME280;55834;50.870;4.606;2023-12-07T05:06:31;101284.88;;;3.26;60.13
68822;BME280;55834;50.870;4.606;2023-12-07T05:08:56;101289.16;;;3.20;58.43
68822;BME280;55834;50.870;4.606;2023-12-07T05:11:22;101290.81;;;3.14;58.22
68822;BME280;55834;50.870;4.606;2023-12-07T05:13:47;101295.09;;;3.09;57.93
68822;BME280;55834;50.870;4.606;2023-12-07T05:16:14;101284.91;;;3.29;59.05
68822;BME280;55834;50.870;4.606;2023-12-07T05:18:40;101287.44;;;3.20;57.63
68822;BME280;55834;50.870;4.606;2023-12-07T05:21:05;101294.31;;;3.18;58.06
68822;BME280;55834;50.870;4.606;2023-12-07T05:23:31;101296.00;;;3.13;58.75
68822;BME280;55834;50.870;4.606;2023-12-07T05:25:56;101282.19;;;3.18;58.41
68822;BME280;55834;50.870;4.606;2023-12-07T05:28:22;101275.16;;;3.14;57.74
68822;BME280;55834;50.870;4.606;2023-12-07T05:30:48;101278.84;;;3.32;58.60
68822;BME280;55834;50.870;4.606;2023-12-07T05:33:15;101269.34;;;3.38;57.98
68822;BME280;55834;50.870;4.606;2023-12-07T05:35:41;101262.47;;;3.47;57.60
68822;BME280;55834;50.870;4.606;2023-12-07T05:38:06;101259.94;;;3.54;57.77
68822;BME280;55834;50.870;4.606;2023-12-07T05:40:31;101266.78;;;3.43;57.02
68822;BME280;55834;50.870;4.606;2023-12-07T05:42:57;101265.09;;;3.50;57.29
68822;BME280;55834;50.870;4.606;2023-12-07T05:45:22;101249.47;;;3.51;57.20
68822;BME280;55834;50.870;4.606;2023-12-07T05:47:48;101262.47;;;3.45;56.77
68822;BME280;55834;50.870;4.606;2023-12-07T05:50:13;101254.91;;;2.92;56.49
68822;BME280;55834;50.870;4.606;2023-12-07T05:52:38;101247.44;;;3.24;58.46
68822;BME280;55834;50.870;4.606;2023-12-07T05:55:04;101242.25;;;3.27;58.11
68822;BME280;55834;50.870;4.606;2023-12-07T05:57:30;101237.16;;;3.39;57.68
68822;BME280;55834;50.870;4.606;2023-12-07T05:59:56;101228.53;;;3.50;57.74
68822;BME280;55834;50.870;4.606;2023-12-07T06:02:21;101226.84;;;3.52;57.07
68822;BME280;55834;50.870;4.606;2023-12-07T06:04:47;101225.97;;;3.53;57.60
68822;BME280;55834;50.870;4.606;2023-12-07T06:07:12;101232.13;;;3.59;57.45
68822;BME280;55834;50.870;4.606;2023-12-07T06:09:38;101229.53;;;3.62;57.17
68822;BME280;55834;50.870;4.606;2023-12-07T06:12:03;101214.72;;;3.61;56.23
68822;BME280;55834;50.870;4.606;2023-12-07T06:14:29;101199.06;;;3.65;56.37
68822;BME280;55834;50.870;4.606;2023-12-07T06:16:54;101195.63;;;3.66;56.76
68822;BME280;55834;50.870;4.606;2023-12-07T06:19:20;101204.31;;;3.66;56.04
68822;BME280;55834;50.870;4.606;2023-12-07T06:21:46;101205.22;;;3.68;56.49
68822;BME280;55834;50.870;4.606;2023-12-07T06:24:11;101205.19;;;3.67;56.16
68822;BME280;55834;50.870;4.606;2023-12-07T06:26:37;101195.63;;;3.66;56.72
68822;BME280;55834;50.870;4.606;2023-12-07T06:29:02;101190.38;;;3.62;56.08
68822;BME280;55834;50.870;4.606;2023-12-07T06:31:27;101190.38;;;3.64;56.45
68822;BME280;55834;50.870;4.606;2023-12-07T06:33:53;101188.66;;;3.68;56.16
68822;BME280;55834;50.870;4.606;2023-12-07T06:36:21;101192.16;;;3.70;56.10
68822;BME280;55834;50.870;4.606;2023-12-07T06:38:47;101195.63;;;3.66;55.48
68822;BME280;55834;50.870;4.606;2023-12-07T06:41:13;101196.47;;;3.65;55.92
68822;BME280;55834;50.870;4.606;2023-12-07T06:43:39;101192.97;;;3.64;54.67
68822;BME280;55834;50.870;4.606;2023-12-07T06:46:04;101192.97;;;3.62;55.71
68822;BME280;55834;50.870;4.606;2023-12-07T06:48:30;101196.44;;;3.61;55.98
68822;BME280;55834;50.870;4.606;2023-12-07T06:50:55;101199.03;;;3.58;55.72
68822;BME280;55834;50.870;4.606;2023-12-07T06:53:20;101196.41;;;3.57;55.82
68822;BME280;55834;50.870;4.606;2023-12-07T06:55:46;101196.41;;;3.55;55.11
68822;BME280;55834;50.870;4.606;2023-12-07T06:58:11;101209.41;;;3.52;55.22
68822;BME280;55834;50.870;4.606;2023-12-07T07:00:37;101214.66;;;3.52;55.82
68822;BME280;55834;50.870;4.606;2023-12-07T07:03:02;101212.91;;;3.53;55.53
68822;BME280;55834;50.870;4.606;2023-12-07T07:05:28;101215.53;;;3.51;55.82
68822;BME280;55834;50.870;4.606;2023-12-07T07:07:53;101215.53;;;3.51;55.44
68822;BME280;55834;50.870;4.606;2023-12-07T07:10:20;101210.31;;;3.54;55.42
68822;BME280;55834;50.870;4.606;2023-12-07T07:12:46;101207.69;;;3.53;55.34
68822;BME280;55834;50.870;4.606;2023-12-07T07:15:11;101189.41;;;3.51;54.95
68822;BME280;55834;50.870;4.606;2023-12-07T07:17:37;101189.41;;;3.51;55.36
68822;BME280;55834;50.870;4.606;2023-12-07T07:20:02;101186.81;;;3.51;55.62
68822;BME280;55834;50.870;4.606;2023-12-07T07:22:28;101179.78;;;3.47;55.37
68822;BME280;55834;50.870;4.606;2023-12-07T07:24:53;101183.28;;;3.46;55.05
68822;BME280;55834;50.870;4.606;2023-12-07T07:27:18;101177.16;;;3.44;54.75
68822;BME280;55834;50.870;4.606;2023-12-07T07:29:44;101186.72;;;3.42;55.62
68822;BME280;55834;50.870;4.606;2023-12-07T07:32:09;101197.09;;;3.36;55.27
68822;BME280;55834;50.870;4.606;2023-12-07T07:34:35;101188.41;;;3.35;55.23
68822;BME280;55834;50.870;4.606;2023-12-07T07:37:01;101193.63;;;3.35;54.89
68822;BME280;55834;50.870;4.606;2023-12-07T07:39:26;101190.97;;;3.28;55.42
68822;BME280;55834;50.870;4.606;2023-12-07T07:41:51;101204.00;;;3.29;55.60
68822;BME280;55834;50.870;4.606;2023-12-07T07:44:17;101209.22;;;3.29;55.28
68822;BME280;55834;50.870;4.606;2023-12-07T07:46:42;101205.75;;;3.30;55.18
68822;BME280;55834;50.870;4.606;2023-12-07T07:49:08;101209.22;;;3.29;55.46
68822;BME280;55834;50.870;4.606;2023-12-07T07:51:33;101214.41;;;3.26;55.13
68822;BME280;55834;50.870;4.606;2023-12-07T07:53:59;101210.03;;;3.24;55.46
68822;BME280;55834;50.870;4.606;2023-12-07T07:56:25;101213.50;;;3.24;55.29
68822;BME280;55834;50.870;4.606;2023-12-07T07:58:50;101223.97;;;3.23;55.61
68822;BME280;55834;50.870;4.606;2023-12-07T08:01:15;101218.75;;;3.23;55.60
68822;BME280;55834;50.870;4.606;2023-12-07T08:03:41;101220.47;;;3.24;55.20
68822;BME280;55834;50.870;4.606;2023-12-07T08:06:07;101203.97;;;3.26;55.10
68822;BME280;55834;50.870;4.606;2023-12-07T08:08:32;101203.13;;;3.29;54.97
68822;BME280;55834;50.870;4.606;2023-12-07T08:10:57;101200.50;;;3.27;54.89
68822;BME280;55834;50.870;4.606;2023-12-07T08:13:23;101198.75;;;3.26;55.67
68822;BME280;55834;50.870;4.606;2023-12-07T08:15:48;101188.38;;;3.32;55.62
68822;BME280;55834;50.870;4.606;2023-12-07T08:18:14;101188.41;;;3.34;55.47
68822;BME280;55834;50.870;4.606;2023-12-07T08:20:39;101191.03;;;3.37;55.97
68822;BME280;55834;50.870;4.606;2023-12-07T08:23:05;101193.72;;;3.46;55.79
68822;BME280;55834;50.870;4.606;2023-12-07T08:25:30;101187.66;;;3.53;55.44
68822;BME280;55834;50.870;4.606;2023-12-07T08:27:57;101191.22;;;3.65;56.13
68822;BME280;55834;50.870;4.606;2023-12-07T08:30:23;101182.63;;;3.75;56.04
68822;BME280;55834;50.870;4.606;2023-12-07T08:32:48;101178.31;;;3.84;56.11
68822;BME280;55834;50.870;4.606;2023-12-07T08:35:13;101187.97;;;3.92;55.41
68822;BME280;55834;50.870;4.606;2023-12-07T08:37:39;101175.78;;;3.98;55.54
68822;BME280;55834;50.870;4.606;2023-12-07T08:40:05;101173.25;;;4.06;55.25
68822;BME280;55834;50.870;4.606;2023-12-07T08:42:31;101158.44;;;4.10;55.34
68822;BME280;55834;50.870;4.606;2023-12-07T08:44:57;101154.94;;;4.07;54.92
68822;BME280;55834;50.870;4.606;2023-12-07T08:47:22;101161.94;;;4.16;55.68
68822;BME280;55834;50.870;4.606;2023-12-07T08:49:48;101170.69;;;4.18;55.04
68822;BME280;55834;50.870;4.606;2023-12-07T08:52:13;101172.44;;;4.22;55.10
68822;BME280;55834;50.870;4.606;2023-12-07T08:54:39;101172.44;;;4.25;55.50
68822;BME280;55834;50.870;4.606;2023-12-07T08:57:04;101161.16;;;4.33;55.60
68822;BME280;55834;50.870;4.606;2023-12-07T08:59:29;101160.28;;;4.37;55.24
68822;BME280;55834;50.870;4.606;2023-12-07T09:01:58;101166.38;;;4.34;55.15
68822;BME280;55834;50.870;4.606;2023-12-07T09:04:23;101158.53;;;4.31;54.66
68822;BME280;55834;50.870;4.606;2023-12-07T09:06:48;101155.91;;;4.25;54.84
68822;BME280;55834;50.870;4.606;2023-12-07T09:09:14;101144.59;;;4.26;55.22
68822;BME280;55834;50.870;4.606;2023-12-07T09:11:39;101152.41;;;4.24;54.79
68822;BME280;55834;50.870;4.606;2023-12-07T09:14:05;101155.91;;;4.23;54.84
68822;BME280;55834;50.870;4.606;2023-12-07T09:16:30;101156.72;;;4.19;55.19
68822;BME280;55834;50.870;4.606;2023-12-07T09:18:55;101153.28;;;4.25;56.12
68822;BME280;55834;50.870;4.606;2023-12-07T09:21:21;101138.47;;;4.24;55.99
68822;BME280;55834;50.870;4.606;2023-12-07T09:23:46;101142.75;;;4.10;54.41
68822;BME280;55834;50.870;4.606;2023-12-07T09:26:12;101143.69;;;4.22;56.26
68822;BME280;55834;50.870;4.606;2023-12-07T09:28:37;101141.06;;;4.21;55.94
68822;BME280;55834;50.870;4.606;2023-12-07T09:31:04;101137.59;;;4.23;55.80
68822;BME280;55834;50.870;4.606;2023-12-07T09:33:30;101136.75;;;4.30;56.11
68822;BME280;55834;50.870;4.606;2023-12-07T09:35:56;101135.03;;;4.37;55.70
68822;BME280;55834;50.870;4.606;2023-12-07T09:38:21;101133.31;;;4.45;56.17
68822;BME280;55834;50.870;4.606;2023-12-07T09:40:47;101130.69;;;4.42;54.70
68822;BME280;55834;50.870;4.606;2023-12-07T09:43:17;101128.94;;;4.38;55.84
68822;BME280;55834;50.870;4.606;2023-12-07T09:45:44;101129.84;;;4.46;55.86
68822;BME280;55834;50.870;4.606;2023-12-07T09:48:09;101126.34;;;4.46;55.75
68822;BME280;55834;50.870;4.606;2023-12-07T09:50:35;101107.19;;;4.53;55.45
68822;BME280;55834;50.870;4.606;2023-12-07T09:53:01;101114.16;;;4.49;54.54
68822;BME280;55834;50.870;4.606;2023-12-07T09:55:27;101113.28;;;4.50;55.09
68822;BME280;55834;50.870;4.606;2023-12-07T09:57:53;101115.91;;;4.57;55.74
68822;BME280;55834;50.870;4.606;2023-12-07T10:00:22;101105.47;;;4.64;55.19
68822;BME280;55834;50.870;4.606;2023-12-07T10:02:47;101104.63;;;4.67;55.07
68822;BME280;55834;50.870;4.606;2023-12-07T10:05:14;101098.50;;;4.74;55.40
68822;BME280;55834;50.870;4.606;2023-12-07T10:07:45;101088.94;;;4.88;55.31
68822;BME280;55834;50.870;4.606;2023-12-07T10:10:14;101086.34;;;5.02;55.03
68822;BME280;55834;50.870;4.606;2023-12-07T10:15:13;101073.22;;;5.01;54.62
68822;BME280;55834;50.870;4.606;2023-12-07T10:17:56;101066.28;;;5.18;55.36
68822;BME280;55834;50.870;4.606;2023-12-07T10:20:23;101065.41;;;5.10;54.42
68822;BME280;55834;50.870;4.606;2023-12-07T10:23:00;101064.53;;;4.95;54.62
68822;BME280;55834;50.870;4.606;2023-12-07T10:25:29;101068.03;;;4.93;54.64
68822;BME280;55834;50.870;4.606;2023-12-07T10:27:54;101052.31;;;4.85;55.09
68822;BME280;55834;50.870;4.606;2023-12-07T10:30:21;101043.59;;;4.95;54.60
68822;BME280;55834;50.870;4.606;2023-12-07T10:32:51;101049.69;;;4.88;54.81
68822;BME280;55834;50.870;4.606;2023-12-07T10:35:17;101047.06;;;4.94;54.84
68822;BME280;55834;50.870;4.606;2023-12-07T10:37:43;101053.16;;;4.95;55.00
68822;BME280;55834;50.870;4.606;2023-12-07T10:40:08;101049.69;;;5.01;54.65
68822;BME280;55834;50.870;4.606;2023-12-07T10:42:36;101048.84;;;4.98;54.26
68822;BME280;55834;50.870;4.606;2023-12-07T10:45:06;101045.34;;;5.09;54.78
68822;BME280;55834;50.870;4.606;2023-12-07T10:47:36;101040.09;;;4.80;53.95
68822;BME280;55834;50.870;4.606;2023-12-07T10:50:05;101043.56;;;4.51;55.13
68822;BME280;55834;50.870;4.606;2023-12-07T10:52:48;101028.78;;;4.67;55.65
68822;BME280;55834;50.870;4.606;2023-12-07T10:55:20;101021.78;;;4.93;54.65
68822;BME280;55834;50.870;4.606;2023-12-07T10:57:47;101002.59;;;4.99;54.70
68822;BME280;55834;50.870;4.606;2023-12-07T11:00:13;100998.22;;;5.15;54.30
68822;BME280;55834;50.870;4.606;2023-12-07T11:02:39;100987.75;;;5.18;53.01
68822;BME280;55834;50.870;4.606;2023-12-07T11:05:06;100980.78;;;5.18;53.37
68822;BME280;55834;50.870;4.606;2023-12-07T11:07:47;100981.63;;;5.27;53.09
68822;BME280;55834;50.870;4.606;2023-12-07T11:10:25;100981.66;;;5.20;53.42
68822;BME280;55834;50.870;4.606;2023-12-07T11:13:02;100973.81;;;5.02;52.47
68822;BME280;55834;50.870;4.606;2023-12-07T11:15:33;100981.69;;;4.85;53.27
68822;BME280;55834;50.870;4.606;2023-12-07T11:18:02;100991.25;;;4.57;54.21
68822;BME280;55834;50.870;4.606;2023-12-07T11:20:41;100986.91;;;4.58;54.39
68822;BME280;55834;50.870;4.606;2023-12-07T11:23:08;100983.41;;;4.83;54.65
68822;BME280;55834;50.870;4.606;2023-12-07T11:25:34;100988.66;;;5.02;54.36
68822;BME280;55834;50.870;4.606;2023-12-07T11:28:00;100978.19;;;4.83;53.91
68822;BME280;55834;50.870;4.606;2023-12-07T11:30:26;100963.34;;;5.16;54.82
68822;BME280;55834;50.870;4.606;2023-12-07T11:32:51;100964.19;;;5.23;53.83
68822;BME280;55834;50.870;4.606;2023-12-07T11:35:17;100955.53;;;4.87;54.16
68822;BME280;55834;50.870;4.606;2023-12-07T11:38:01;100949.38;;;5.14;53.79
68822;BME280;55834;50.870;4.606;2023-12-07T11:40:42;100939.81;;;5.13;53.56
68822;BME280;55834;50.870;4.606;2023-12-07T11:43:08;100938.00;;;5.24;53.55
68822;BME280;55834;50.870;4.606;2023-12-07T11:45:41;100936.22;;;5.35;53.12
68822;BME280;55834;50.870;4.606;2023-12-07T11:48:16;100931.91;;;5.22;52.07
68822;BME280;55834;50.870;4.606;2023-12-07T11:51:13;100930.09;;;5.41;52.53
68822;BME280;55834;50.870;4.606;2023-12-07T11:53:38;100912.66;;;5.35;51.09
68822;BME280;55834;50.870;4.606;2023-12-07T11:56:07;100899.50;;;5.54;52.17
68822;BME280;55834;50.870;4.606;2023-12-07T11:58:34;100908.19;;;5.59;51.92
68822;BME280;55834;50.870;4.606;2023-12-07T12:01:00;100899.44;;;5.63;51.89
68822;BME280;55834;50.870;4.606;2023-12-07T12:03:27;100902.13;;;5.54;51.14
68822;BME280;55834;50.870;4.606;2023-12-07T12:05:53;100903.84;;;5.55;52.33
68822;BME280;55834;50.870;4.606;2023-12-07T12:08:20;100894.25;;;5.54;51.37
68822;BME280;55834;50.870;4.606;2023-12-07T12:10:46;100886.38;;;5.57;51.34
68822;BME280;55834;50.870;4.606;2023-12-07T12:13:12;100884.63;;;5.62;51.15
68822;BME280;55834;50.870;4.606;2023-12-07T12:15:39;100880.22;;;5.69;51.35
68822;BME280;55834;50.870;4.606;2023-12-07T12:18:05;100879.28;;;5.73;51.11
68822;BME280;55834;50.870;4.606;2023-12-07T12:20:31;100881.06;;;5.69;50.77
68822;BME280;55834;50.870;4.606;2023-12-07T12:22:58;100875.84;;;5.69;50.92
68822;BME280;55834;50.870;4.606;2023-12-07T12:25:25;100864.53;;;5.61;51.34
68822;BME280;55834;50.870;4.606;2023-12-07T12:27:54;100864.47;;;5.72;51.42
68822;BME280;55834;50.870;4.606;2023-12-07T12:30:21;100847.03;;;5.71;50.52
68822;BME280;55834;50.870;4.606;2023-12-07T12:32:48;100827.75;;;5.73;50.86
68822;BME280;55834;50.870;4.606;2023-12-07T12:35:14;100827.75;;;5.73;50.33
68822;BME280;55834;50.870;4.606;2023-12-07T12:37:41;100819.03;;;5.73;50.91
68822;BME280;55834;50.870;4.606;2023-12-07T12:40:10;100809.50;;;5.65;50.46
68822;BME280;55834;50.870;4.606;2023-12-07T12:42:36;100806.88;;;5.65;50.02
68822;BME280;55834;50.870;4.606;2023-12-07T12:45:07;100806.00;;;5.65;50.79
68822;BME280;55834;50.870;4.606;2023-12-07T12:47:33;100810.31;;;5.72;50.49
68822;BME280;55834;50.870;4.606;2023-12-07T12:50:00;100781.47;;;5.75;50.67
68822;BME280;55834;50.870;4.606;2023-12-07T12:52:27;100785.81;;;5.76;50.45
68822;BME280;55834;50.870;4.606;2023-12-07T12:54:55;100788.47;;;5.73;50.07
68822;BME280;55834;50.870;4.606;2023-12-07T12:57:20;100776.25;;;5.75;50.30
68822;BME280;55834;50.870;4.606;2023-12-07T12:59:47;100770.09;;;5.76;50.67
68822;BME280;55834;50.870;4.606;2023-12-07T13:02:13;100766.59;;;5.80;50.34